createdAt,value
2023-01-13T00:00:32.733Z,999.90
2023-01-13T00:01:32.656Z,999.72
2023-01-13T00:02:32.672Z,999.70
2023-01-13T00:03:32.689Z,999.82
2023-01-13T00:04:32.682Z,999.73
2023-01-13T00:05:32.641Z,999.69
2023-01-13T00:06:32.618Z,999.84
2023-01-13T00:07:32.595Z,999.83
2023-01-13T00:08:32.710Z,999.82
2023-01-13T00:09:32.582Z,999.78
2023-01-13T00:10:32.569Z,999.69
2023-01-13T00:11:32.574Z,999.80
2023-01-13T00:12:32.601Z,999.76
2023-01-13T00:13:32.587Z,999.77
2023-01-13T00:14:32.528Z,999.77
2023-01-13T00:15:32.551Z,999.82
2023-01-13T00:16:32.505Z,999.81
2023-01-13T00:17:32.503Z,999.90
2023-01-13T00:18:32.512Z,999.85
2023-01-13T00:19:32.514Z,999.80
2023-01-13T00:20:32.454Z,999.82
2023-01-13T00:21:32.454Z,999.87
2023-01-13T00:22:32.439Z,999.84
2023-01-13T00:23:32.481Z,999.85
2023-01-13T00:24:32.435Z,999.83
2023-01-13T00:25:32.417Z,999.80
2023-01-13T00:26:32.397Z,999.77
2023-01-13T00:27:32.404Z,999.77
2023-01-13T00:28:32.378Z,999.79
2023-01-13T00:29:32.399Z,999.80
2023-01-13T00:30:32.355Z,999.80
2023-01-13T00:31:32.454Z,999.84
2023-01-13T00:32:32.345Z,999.81
2023-01-13T00:33:32.348Z,999.80
2023-01-13T00:34:32.323Z,999.72
2023-01-13T00:35:32.310Z,999.77
2023-01-13T00:36:32.321Z,999.73
2023-01-13T00:37:32.343Z,999.76
2023-01-13T00:38:32.313Z,999.78
2023-01-13T00:39:32.271Z,999.79
2023-01-13T00:40:32.274Z,999.84
2023-01-13T00:41:32.247Z,999.77
2023-01-13T00:42:32.225Z,999.65
2023-01-13T00:43:32.275Z,999.71
2023-01-13T00:44:32.221Z,999.77
2023-01-13T00:45:32.210Z,999.84
2023-01-13T00:46:32.350Z,999.74
2023-01-13T00:47:32.199Z,999.74
2023-01-13T00:48:32.199Z,999.73
2023-01-13T00:49:33.134Z,999.72
2023-01-13T00:50:32.213Z,999.79
2023-01-13T00:51:32.133Z,999.65
2023-01-13T00:52:32.189Z,999.57
2023-01-13T00:53:32.155Z,999.73
2023-01-13T00:54:32.147Z,999.80
2023-01-13T00:55:32.099Z,999.71
2023-01-13T00:56:40.224Z,999.64
2023-01-13T00:57:32.079Z,999.68
2023-01-13T00:58:32.091Z,999.72
2023-01-13T00:59:32.089Z,999.70
2023-01-13T01:00:32.101Z,999.74
2023-01-13T01:01:32.213Z,999.74
2023-01-13T01:02:32.069Z,999.72
2023-01-13T01:03:32.030Z,999.72
2023-01-13T01:04:32.026Z,999.77
2023-01-13T01:05:31.996Z,999.78
2023-01-13T01:06:31.990Z,999.76
2023-01-13T01:07:31.973Z,999.80
2023-01-13T01:08:31.974Z,999.78
2023-01-13T01:09:31.966Z,999.76
2023-01-13T01:10:31.945Z,999.76
2023-01-13T01:11:31.939Z,999.79
2023-01-13T01:12:31.933Z,999.82
2023-01-13T01:13:32.019Z,999.76
2023-01-13T01:14:31.952Z,999.79
2023-01-13T01:15:31.885Z,999.77
2023-01-13T01:16:32.018Z,999.87
2023-01-13T01:17:31.866Z,999.83
2023-01-13T01:18:31.856Z,999.83
2023-01-13T01:19:32.153Z,999.86
2023-01-13T01:20:31.839Z,999.91
2023-01-13T01:21:31.873Z,999.82
2023-01-13T01:22:31.824Z,999.83
2023-01-13T01:23:31.839Z,999.78
2023-01-13T01:24:31.821Z,999.87
2023-01-13T01:25:31.786Z,999.88
2023-01-13T01:26:31.788Z,999.89
2023-01-13T01:27:31.782Z,999.88
2023-01-13T01:28:31.779Z,999.95
2023-01-13T01:29:31.811Z,999.88
2023-01-13T01:30:31.731Z,999.78
2023-01-13T01:31:31.871Z,999.82
2023-01-13T01:32:31.726Z,999.79
2023-01-13T01:33:31.701Z,999.76
2023-01-13T01:34:31.737Z,999.88
2023-01-13T01:35:31.678Z,999.80
2023-01-13T01:36:31.704Z,999.75
2023-01-13T01:37:31.677Z,999.77
2023-01-13T01:38:31.651Z,999.76
2023-01-13T01:39:31.744Z,999.73
2023-01-13T01:40:31.650Z,999.90
2023-01-13T01:41:31.645Z,999.79
2023-01-13T01:42:31.622Z,999.70
2023-01-13T01:43:31.630Z,999.70
2023-01-13T01:44:31.649Z,999.73
2023-01-13T01:45:31.719Z,999.74
2023-01-13T01:46:31.638Z,999.66
2023-01-13T01:47:31.562Z,999.72
2023-01-13T01:48:31.560Z,999.71
2023-01-13T01:49:31.560Z,999.62
2023-01-13T01:50:31.534Z,999.64
2023-01-13T01:51:31.529Z,999.67
2023-01-13T01:52:31.522Z,999.66
2023-01-13T01:53:31.494Z,999.64
2023-01-13T01:54:31.553Z,999.59
2023-01-13T01:55:31.497Z,999.72
2023-01-13T01:56:31.462Z,999.60
2023-01-13T01:57:31.454Z,999.62
2023-01-13T01:58:31.467Z,999.62
2023-01-13T01:59:31.474Z,999.61
2023-01-13T02:00:31.444Z,999.60
2023-01-13T02:01:31.500Z,999.56
2023-01-13T02:02:31.473Z,999.57
2023-01-13T02:03:31.428Z,999.56
2023-01-13T02:04:31.393Z,999.61
2023-01-13T02:05:31.371Z,999.52
2023-01-13T02:06:31.419Z,999.49
2023-01-13T02:07:31.389Z,999.53
2023-01-13T02:08:31.341Z,999.55
2023-01-13T02:09:31.382Z,999.53
2023-01-13T02:10:31.324Z,999.59
2023-01-13T02:11:31.315Z,999.54
2023-01-13T02:12:31.303Z,999.49
2023-01-13T02:13:31.282Z,999.52
2023-01-13T02:14:31.305Z,999.51
2023-01-13T02:15:31.333Z,999.51
2023-01-13T02:16:31.345Z,999.53
2023-01-13T02:17:31.255Z,999.63
2023-01-13T02:18:31.258Z,999.56
2023-01-13T02:19:31.245Z,999.50
2023-01-13T02:20:31.227Z,999.54
2023-01-13T02:21:31.215Z,999.53
2023-01-13T02:22:31.195Z,999.46
2023-01-13T02:23:31.213Z,999.40
2023-01-13T02:24:31.196Z,999.40
2023-01-13T02:25:31.165Z,999.47
2023-01-13T02:26:31.149Z,999.49
2023-01-13T02:27:31.165Z,999.51
2023-01-13T02:28:31.147Z,999.52
2023-01-13T02:29:31.143Z,999.51
2023-01-13T02:30:31.119Z,999.46
2023-01-13T02:31:31.116Z,999.42
2023-01-13T02:32:31.096Z,999.40
2023-01-13T02:33:31.082Z,999.38
2023-01-13T02:34:31.081Z,999.40
2023-01-13T02:35:31.113Z,999.40
2023-01-13T02:36:31.131Z,999.34
2023-01-13T02:37:31.045Z,999.39
2023-01-13T02:38:31.050Z,999.38
2023-01-13T02:39:31.015Z,999.38
2023-01-13T02:40:31.053Z,999.34
2023-01-13T02:41:31.001Z,999.32
2023-01-13T02:42:31.053Z,999.38
2023-01-13T02:43:31.012Z,999.39
2023-01-13T02:44:31.003Z,999.36
2023-01-13T02:45:31.014Z,999.41
2023-01-13T02:46:30.984Z,999.37
2023-01-13T02:47:30.992Z,999.34
2023-01-13T02:48:30.979Z,999.34
2023-01-13T02:49:30.955Z,999.51
2023-01-13T02:50:30.935Z,999.32
2023-01-13T02:51:30.899Z,999.33
2023-01-13T02:52:30.912Z,999.29
2023-01-13T02:53:30.891Z,999.33
2023-01-13T02:54:30.871Z,999.37
2023-01-13T02:55:30.982Z,999.34
2023-01-13T02:56:30.903Z,999.34
2023-01-13T02:57:30.834Z,999.37
2023-01-13T02:58:30.826Z,999.31
2023-01-13T02:59:30.783Z,999.35
2023-01-13T03:00:30.847Z,999.37
2023-01-13T03:01:30.892Z,999.36
2023-01-13T03:02:30.752Z,999.33
2023-01-13T03:03:30.730Z,999.33
2023-01-13T03:04:30.694Z,999.30
2023-01-13T03:05:30.720Z,999.33
2023-01-13T03:06:30.695Z,999.26
2023-01-13T03:07:30.688Z,999.31
2023-01-13T03:08:30.689Z,999.30
2023-01-13T03:09:30.717Z,999.33
2023-01-13T03:10:30.683Z,999.31
2023-01-13T03:11:30.616Z,999.33
2023-01-13T03:12:30.641Z,999.29
2023-01-13T03:13:30.619Z,999.31
2023-01-13T03:14:30.598Z,999.33
2023-01-13T03:15:30.661Z,999.33
2023-01-13T03:16:30.622Z,999.26
2023-01-13T03:17:30.575Z,999.31
2023-01-13T03:18:30.587Z,999.31
2023-01-13T03:19:30.563Z,999.31
2023-01-13T03:20:30.545Z,999.28
2023-01-13T03:21:30.517Z,999.22
2023-01-13T03:22:30.504Z,999.08
2023-01-13T03:23:30.497Z,999.08
2023-01-13T03:24:30.527Z,999.07
2023-01-13T03:25:30.491Z,999.07
2023-01-13T03:26:30.477Z,999.12
2023-01-13T03:27:30.482Z,999.13
2023-01-13T03:28:30.447Z,999.12
2023-01-13T03:29:30.430Z,999.12
2023-01-13T03:30:30.514Z,999.18
2023-01-13T03:31:30.435Z,999.18
2023-01-13T03:32:30.449Z,999.16
2023-01-13T03:33:30.384Z,999.23
2023-01-13T03:34:31.245Z,999.19
2023-01-13T03:35:30.396Z,999.33
2023-01-13T03:36:30.367Z,999.19
2023-01-13T03:37:30.346Z,999.18
2023-01-13T03:38:30.341Z,999.21
2023-01-13T03:39:30.399Z,999.18
2023-01-13T03:40:30.411Z,999.18
2023-01-13T03:41:30.305Z,999.16
2023-01-13T03:42:30.315Z,999.17
2023-01-13T03:43:30.290Z,999.25
2023-01-13T03:44:32.563Z,999.12
2023-01-13T03:45:30.288Z,999.13
2023-01-13T03:46:30.268Z,999.16
2023-01-13T03:47:30.275Z,999.16
2023-01-13T03:48:30.291Z,999.16
2023-01-13T03:49:30.227Z,999.19
2023-01-13T03:50:30.216Z,999.22
2023-01-13T03:51:30.265Z,999.21
2023-01-13T03:52:30.208Z,999.14
2023-01-13T03:53:30.216Z,999.16
2023-01-13T03:54:30.202Z,999.12
2023-01-13T03:55:30.158Z,999.01
2023-01-13T03:56:30.156Z,999.12
2023-01-13T03:57:30.216Z,999.15
2023-01-13T03:58:30.159Z,999.14
2023-01-13T03:59:30.144Z,999.21
2023-01-13T04:00:30.132Z,999.21
2023-01-13T04:01:30.264Z,999.22
2023-01-13T04:02:30.096Z,999.20
2023-01-13T04:03:30.240Z,999.13
2023-01-13T04:04:30.087Z,999.15
2023-01-13T04:05:30.078Z,999.05
2023-01-13T04:06:30.061Z,999.03
2023-01-13T04:07:30.071Z,999.08
2023-01-13T04:08:30.031Z,998.99
2023-01-13T04:09:30.020Z,999.08
2023-01-13T04:10:30.096Z,999.08
2023-01-13T04:11:30.013Z,999.11
2023-01-13T04:12:30.026Z,999.15
2023-01-13T04:13:29.979Z,999.03
2023-01-13T04:14:29.971Z,999.05
2023-01-13T04:15:30.055Z,999.11
2023-01-13T04:16:29.959Z,999.09
2023-01-13T04:17:29.956Z,999.04
2023-01-13T04:18:29.940Z,999.07
2023-01-13T04:19:29.921Z,999.09
2023-01-13T04:20:29.973Z,999.08
2023-01-13T04:21:29.902Z,999.08
2023-01-13T04:22:29.892Z,999.07
2023-01-13T04:23:29.893Z,999.06
2023-01-13T04:24:29.884Z,999.07
2023-01-13T04:25:29.878Z,999.02
2023-01-13T04:26:29.863Z,999.01
2023-01-13T04:27:29.835Z,999.08
2023-01-13T04:28:29.843Z,999.07
2023-01-13T04:29:29.817Z,999.08
2023-01-13T04:30:29.848Z,999.14
2023-01-13T04:31:29.811Z,999.10
2023-01-13T04:32:29.784Z,999.13
2023-01-13T04:33:29.801Z,999.09
2023-01-13T04:34:29.771Z,999.12
2023-01-13T04:35:29.767Z,999.11
2023-01-13T04:36:29.758Z,999.15
2023-01-13T04:37:29.735Z,999.11
2023-01-13T04:38:29.774Z,999.14
2023-01-13T04:39:29.715Z,999.13
2023-01-13T04:40:29.707Z,999.15
2023-01-13T04:41:29.710Z,999.14
2023-01-13T04:42:29.708Z,999.15
2023-01-13T04:43:29.798Z,999.15
2023-01-13T04:44:29.665Z,999.22
2023-01-13T04:45:29.665Z,999.17
2023-01-13T04:46:29.765Z,999.17
2023-01-13T04:47:29.644Z,999.15
2023-01-13T04:48:29.651Z,999.20
2023-01-13T04:49:29.633Z,999.21
2023-01-13T04:50:29.669Z,999.13
2023-01-13T04:51:29.590Z,999.18
2023-01-13T04:52:29.666Z,999.19
2023-01-13T04:53:29.591Z,999.16
2023-01-13T04:54:29.624Z,999.17
2023-01-13T04:55:29.571Z,999.14
2023-01-13T04:56:29.576Z,999.21
2023-01-13T04:57:29.555Z,999.24
2023-01-13T04:58:29.517Z,999.27
2023-01-13T04:59:29.547Z,999.21
2023-01-13T05:00:29.555Z,999.23
2023-01-13T05:01:29.578Z,999.27
2023-01-13T05:02:29.483Z,999.23
2023-01-13T05:03:29.463Z,999.20
2023-01-13T05:04:29.515Z,999.23
2023-01-13T05:05:29.502Z,999.28
2023-01-13T05:06:29.445Z,999.33
2023-01-13T05:07:29.447Z,999.28
2023-01-13T05:08:29.420Z,999.27
2023-01-13T05:09:29.394Z,999.28
2023-01-13T05:10:29.442Z,999.28
2023-01-13T05:11:29.404Z,999.31
2023-01-13T05:12:29.386Z,999.32
2023-01-13T05:13:29.380Z,999.34
2023-01-13T05:14:29.349Z,999.36
2023-01-13T05:15:29.366Z,999.33
2023-01-13T05:16:29.450Z,999.38
2023-01-13T05:17:29.324Z,999.35
2023-01-13T05:18:29.330Z,999.38
2023-01-13T05:19:29.293Z,999.35
2023-01-13T05:20:29.339Z,999.41
2023-01-13T05:21:29.278Z,999.35
2023-01-13T05:22:29.315Z,999.39
2023-01-13T05:23:29.251Z,999.39
2023-01-13T05:24:29.254Z,999.43
2023-01-13T05:25:29.343Z,999.45
2023-01-13T05:26:29.227Z,999.46
2023-01-13T05:27:29.241Z,999.40
2023-01-13T05:28:29.200Z,999.42
2023-01-13T05:29:29.224Z,999.40
2023-01-13T05:30:29.201Z,999.41
2023-01-13T05:31:29.252Z,999.40
2023-01-13T05:32:29.165Z,999.34
2023-01-13T05:33:29.194Z,999.35
2023-01-13T05:34:29.161Z,999.36
2023-01-13T05:35:29.181Z,999.37
2023-01-13T05:36:29.137Z,999.38
2023-01-13T05:37:29.110Z,999.36
2023-01-13T05:38:29.114Z,999.38
2023-01-13T05:39:29.087Z,999.40
2023-01-13T05:40:29.104Z,999.40
2023-01-13T05:41:29.068Z,999.40
2023-01-13T05:42:29.093Z,999.43
2023-01-13T05:43:29.049Z,999.43
2023-01-13T05:44:29.046Z,999.44
2023-01-13T05:45:29.112Z,999.42
2023-01-13T05:46:29.076Z,999.40
2023-01-13T05:47:29.001Z,999.39
2023-01-13T05:48:29.034Z,999.33
2023-01-13T05:49:29.022Z,999.35
2023-01-13T05:50:29.038Z,999.32
2023-01-13T05:51:28.956Z,999.33
2023-01-13T05:52:28.977Z,999.35
2023-01-13T05:53:28.945Z,999.35
2023-01-13T05:54:28.949Z,999.36
2023-01-13T05:55:28.935Z,999.39
2023-01-13T05:56:28.931Z,999.45
2023-01-13T05:57:28.893Z,999.45
2023-01-13T05:58:28.906Z,999.46
2023-01-13T05:59:28.902Z,999.49
2023-01-13T06:00:28.896Z,999.58
2023-01-13T06:01:28.906Z,999.58
2023-01-13T06:02:28.872Z,999.59
2023-01-13T06:03:28.863Z,999.58
2023-01-13T06:04:28.911Z,999.60
2023-01-13T06:05:28.887Z,999.61
2023-01-13T06:06:28.819Z,999.61
2023-01-13T06:07:28.792Z,999.61
2023-01-13T06:08:28.795Z,999.64
2023-01-13T06:09:28.804Z,999.59
2023-01-13T06:10:28.771Z,999.63
2023-01-13T06:11:28.813Z,999.60
2023-01-13T06:12:28.785Z,999.60
2023-01-13T06:13:28.770Z,999.61
2023-01-13T06:14:28.804Z,999.64
2023-01-13T06:15:28.715Z,999.63
2023-01-13T06:16:28.824Z,999.64
2023-01-13T06:17:28.704Z,999.66
2023-01-13T06:18:28.713Z,999.65
2023-01-13T06:19:28.679Z,999.66
2023-01-13T06:20:28.668Z,999.65
2023-01-13T06:21:28.665Z,999.64
2023-01-13T06:22:28.660Z,999.66
2023-01-13T06:23:28.654Z,999.66
2023-01-13T06:24:28.675Z,999.70
2023-01-13T06:25:28.636Z,999.73
2023-01-13T06:26:28.603Z,999.71
2023-01-13T06:27:28.616Z,999.74
2023-01-13T06:28:28.608Z,999.77
2023-01-13T06:29:28.594Z,999.79
2023-01-13T06:30:28.564Z,999.80
2023-01-13T06:31:28.705Z,999.82
2023-01-13T06:32:28.579Z,999.85
2023-01-13T06:33:28.543Z,999.84
2023-01-13T06:34:28.562Z,999.81
2023-01-13T06:35:28.523Z,999.80
2023-01-13T06:36:28.476Z,999.75
2023-01-13T06:37:28.534Z,999.77
2023-01-13T06:38:28.452Z,999.81
2023-01-13T06:39:28.430Z,999.79
2023-01-13T06:40:28.398Z,999.82
2023-01-13T06:41:28.436Z,999.76
2023-01-13T06:42:28.378Z,999.74
2023-01-13T06:43:28.413Z,999.72
2023-01-13T06:44:28.383Z,999.75
2023-01-13T06:45:28.384Z,999.76
2023-01-13T06:46:28.389Z,999.78
2023-01-13T06:47:28.366Z,999.76
2023-01-13T06:48:28.403Z,999.72
2023-01-13T06:49:28.315Z,999.77
2023-01-13T06:50:28.318Z,999.70
2023-01-13T06:51:28.342Z,999.67
2023-01-13T06:52:28.285Z,999.59
2023-01-13T06:53:28.373Z,999.54
2023-01-13T06:54:28.304Z,999.59
2023-01-13T06:55:28.271Z,999.57
2023-01-13T06:56:28.266Z,999.44
2023-01-13T06:57:28.239Z,999.35
2023-01-13T06:58:28.232Z,999.27
2023-01-13T06:59:28.213Z,999.30
2023-01-13T07:00:28.196Z,999.40
2023-01-13T07:01:28.374Z,999.58
2023-01-13T07:02:28.285Z,999.67
2023-01-13T07:03:28.186Z,999.64
2023-01-13T07:04:28.158Z,999.68
2023-01-13T07:05:28.146Z,999.71
2023-01-13T07:06:28.141Z,999.72
2023-01-13T07:07:28.206Z,999.73
2023-01-13T07:08:28.135Z,999.63
2023-01-13T07:09:28.126Z,999.63
2023-01-13T07:10:28.112Z,999.66
2023-01-13T07:11:28.107Z,999.68
2023-01-13T07:12:28.115Z,999.69
2023-01-13T07:13:28.094Z,999.68
2023-01-13T07:14:28.059Z,999.61
2023-01-13T07:15:28.054Z,999.60
2023-01-13T07:16:28.183Z,999.62
2023-01-13T07:17:28.060Z,999.62
2023-01-13T07:18:28.019Z,999.66
2023-01-13T07:19:28.006Z,999.69
2023-01-13T07:20:28.005Z,999.69
2023-01-13T07:21:28.029Z,999.69
2023-01-13T07:22:27.966Z,999.69
2023-01-13T07:23:28.004Z,999.70
2023-01-13T07:24:27.955Z,999.59
2023-01-13T07:25:27.971Z,999.61
2023-01-13T07:26:27.951Z,999.53
2023-01-13T07:27:27.940Z,999.43
2023-01-13T07:28:27.953Z,999.33
2023-01-13T07:29:27.899Z,999.30
2023-01-13T07:30:27.913Z,999.26
2023-01-13T07:31:27.915Z,999.29
2023-01-13T07:32:27.886Z,999.39
2023-01-13T07:33:27.882Z,999.41
2023-01-13T07:34:27.897Z,999.43
2023-01-13T07:35:27.846Z,999.60
2023-01-13T07:36:27.824Z,999.67
2023-01-13T07:37:27.820Z,999.66
2023-01-13T07:38:27.852Z,999.61
2023-01-13T07:39:27.817Z,999.56
2023-01-13T07:40:27.868Z,999.37
2023-01-13T07:41:27.774Z,999.35
2023-01-13T07:42:27.764Z,999.44
2023-01-13T07:43:27.769Z,999.52
2023-01-13T07:44:27.766Z,999.64
2023-01-13T07:45:27.822Z,999.68
2023-01-13T07:46:27.722Z,999.64
2023-01-13T07:47:34.549Z,999.51
2023-01-13T07:48:27.726Z,999.39
2023-01-13T07:49:27.686Z,999.42
2023-01-13T07:50:29.295Z,999.60
2023-01-13T07:51:27.716Z,999.64
2023-01-13T07:52:27.656Z,999.67
2023-01-13T07:53:27.654Z,999.69
2023-01-13T07:54:39.606Z,999.69
2023-01-13T07:55:27.657Z,999.75
2023-01-13T07:56:27.642Z,999.83
2023-01-13T07:57:27.609Z,999.82
2023-01-13T07:58:27.655Z,999.79
2023-01-13T07:59:27.604Z,999.84
2023-01-13T08:00:27.593Z,999.81
2023-01-13T08:01:27.698Z,999.79
2023-01-13T08:02:27.778Z,999.75
2023-01-13T08:03:27.560Z,999.76
2023-01-13T08:04:27.533Z,999.77
2023-01-13T08:05:27.563Z,999.81
2023-01-13T08:06:27.516Z,999.77
2023-01-13T08:07:27.522Z,999.74
2023-01-13T08:08:27.524Z,999.76
2023-01-13T08:09:27.501Z,999.82
2023-01-13T08:10:27.481Z,999.83
2023-01-13T08:11:27.469Z,999.84
2023-01-13T08:12:27.462Z,999.94
2023-01-13T08:13:27.450Z,1000.09
2023-01-13T08:14:27.429Z,1000.24
2023-01-13T08:15:27.434Z,1000.17
2023-01-13T08:16:27.441Z,1000.20
2023-01-13T08:17:27.415Z,1000.15
2023-01-13T08:18:27.380Z,1000.13
2023-01-13T08:19:27.405Z,1000.10
2023-01-13T08:20:27.383Z,1000.09
2023-01-13T08:21:27.362Z,1000.13
2023-01-13T08:22:27.366Z,1000.16
2023-01-13T08:23:27.359Z,1000.09
2023-01-13T08:24:27.327Z,1000.13
2023-01-13T08:25:27.502Z,1000.21
2023-01-13T08:26:27.323Z,1000.22
2023-01-13T08:27:27.303Z,1000.23
2023-01-13T08:28:27.306Z,1000.31
2023-01-13T08:29:27.305Z,1000.28
2023-01-13T08:30:27.338Z,1000.30
2023-01-13T08:31:27.266Z,1000.36
2023-01-13T08:32:27.261Z,1000.36
2023-01-13T08:33:27.462Z,1000.32
2023-01-13T08:34:27.238Z,1000.31
2023-01-13T08:35:27.217Z,1000.28
2023-01-13T08:36:27.224Z,1000.22
2023-01-13T08:37:27.216Z,1000.17
2023-01-13T08:38:27.175Z,1000.11
2023-01-13T08:39:27.205Z,1000.09
2023-01-13T08:40:27.174Z,1000.12
2023-01-13T08:41:27.163Z,1000.05
2023-01-13T08:42:27.169Z,1000.07
2023-01-13T08:43:27.166Z,1000.08
2023-01-13T08:44:27.156Z,1000.13
2023-01-13T08:45:27.129Z,1000.12
2023-01-13T08:46:27.149Z,1000.08
2023-01-13T08:47:27.086Z,1000.06
2023-01-13T08:48:28.554Z,1000.06
2023-01-13T08:49:27.077Z,1000.08
2023-01-13T08:50:27.139Z,1000.12
2023-01-13T08:51:27.060Z,1000.05
2023-01-13T08:52:27.057Z,1000.02
2023-01-13T08:53:27.051Z,1000.00
2023-01-13T08:54:27.024Z,1000.11
2023-01-13T08:55:27.020Z,1000.23
2023-01-13T08:56:27.060Z,1000.44
2023-01-13T08:57:27.099Z,1000.52
2023-01-13T08:58:27.024Z,1000.52
2023-01-13T08:59:27.019Z,1000.61
2023-01-13T09:00:26.962Z,1000.61
2023-01-13T09:01:27.201Z,1000.61
2023-01-13T09:02:26.981Z,1000.56
2023-01-13T09:03:26.961Z,1000.48
2023-01-13T09:04:26.943Z,1000.46
2023-01-13T09:05:26.941Z,1000.50
2023-01-13T09:06:26.892Z,1000.50
2023-01-13T09:07:26.894Z,1000.59
2023-01-13T09:08:26.871Z,1000.65
2023-01-13T09:09:26.906Z,1000.59
2023-01-13T09:10:26.895Z,1000.62
2023-01-13T09:11:26.879Z,1000.46
2023-01-13T09:12:26.880Z,1000.37
2023-01-13T09:13:26.836Z,1000.27
2023-01-13T09:14:26.817Z,1000.19
2023-01-13T09:15:26.865Z,1000.07
2023-01-13T09:16:26.812Z,999.89
2023-01-13T09:17:26.801Z,999.58
2023-01-13T09:18:26.778Z,999.13
2023-01-13T09:19:26.776Z,998.86
2023-01-13T09:20:26.775Z,998.77
2023-01-13T09:21:26.749Z,998.90
2023-01-13T09:22:26.745Z,999.32
2023-01-13T09:23:26.744Z,999.56
2023-01-13T09:24:26.722Z,999.83
2023-01-13T09:25:26.709Z,999.87
2023-01-13T09:26:26.687Z,999.91
2023-01-13T09:27:27.094Z,999.96
2023-01-13T09:28:26.664Z,1000.13
2023-01-13T09:29:26.697Z,1000.30
2023-01-13T09:30:26.640Z,1000.41
2023-01-13T09:31:26.721Z,1000.40
2023-01-13T09:32:26.654Z,1000.38
2023-01-13T09:33:26.666Z,1000.39
2023-01-13T09:34:26.618Z,1000.35
2023-01-13T09:35:26.593Z,1000.30
2023-01-13T09:36:26.585Z,1000.30
2023-01-13T09:37:26.576Z,1000.26
2023-01-13T09:38:26.588Z,1000.25
2023-01-13T09:39:26.571Z,1000.21
2023-01-13T09:40:26.540Z,1000.21
2023-01-13T09:41:26.582Z,1000.19
2023-01-13T09:42:26.516Z,1000.20
2023-01-13T09:43:26.543Z,1000.12
2023-01-13T09:44:26.517Z,1000.05
2023-01-13T09:45:26.504Z,999.99
2023-01-13T09:46:26.541Z,999.97
2023-01-13T09:47:26.499Z,999.94
2023-01-13T09:48:26.515Z,999.97
2023-01-13T09:49:26.466Z,999.98
2023-01-13T09:50:26.456Z,999.97
2023-01-13T09:51:26.462Z,1000.03
2023-01-13T09:52:27.172Z,1000.08
2023-01-13T09:53:26.414Z,1000.06
2023-01-13T09:54:26.415Z,1000.07
2023-01-13T09:55:26.401Z,1000.15
2023-01-13T09:56:26.366Z,1000.19
2023-01-13T09:57:26.429Z,1000.24
2023-01-13T09:58:26.363Z,1000.20
2023-01-13T09:59:26.355Z,1000.24
2023-01-13T10:00:26.332Z,1000.24
2023-01-13T10:01:26.383Z,1000.27
2023-01-13T10:02:26.364Z,1000.23
2023-01-13T10:03:26.333Z,1000.26
2023-01-13T10:04:26.324Z,1000.27
2023-01-13T10:05:26.294Z,1000.29
2023-01-13T10:06:26.275Z,1000.33
2023-01-13T10:07:27.137Z,1000.34
2023-01-13T10:08:26.289Z,1000.34
2023-01-13T10:09:26.271Z,1000.33
2023-01-13T10:10:26.275Z,1000.33
2023-01-13T10:11:26.221Z,1000.29
2023-01-13T10:12:26.224Z,1000.29
2023-01-13T10:13:26.291Z,1000.31
2023-01-13T10:14:26.242Z,1000.30
2023-01-13T10:15:26.182Z,1000.33
2023-01-13T10:16:26.241Z,1000.33
2023-01-13T10:17:26.162Z,1000.35
2023-01-13T10:18:26.170Z,1000.36
2023-01-13T10:19:26.158Z,1000.36
2023-01-13T10:20:26.131Z,1000.37
2023-01-13T10:21:26.112Z,1000.40
2023-01-13T10:22:26.126Z,1000.43
2023-01-13T10:23:26.107Z,1000.42
2023-01-13T10:24:26.108Z,1000.43
2023-01-13T10:25:26.076Z,1000.45
2023-01-13T10:26:26.119Z,1000.49
2023-01-13T10:27:26.050Z,1000.47
2023-01-13T10:28:26.071Z,1000.45
2023-01-13T10:29:26.047Z,1000.41
2023-01-13T10:30:26.038Z,1000.42
2023-01-13T10:31:26.146Z,1000.41
2023-01-13T10:32:26.020Z,1000.35
2023-01-13T10:33:27.911Z,1000.39
2023-01-13T10:34:25.983Z,1000.28
2023-01-13T10:35:25.981Z,1000.31
2023-01-13T10:36:25.961Z,1000.28
2023-01-13T10:37:26.050Z,1000.32
2023-01-13T10:38:25.967Z,1000.40
2023-01-13T10:39:26.004Z,1000.38
2023-01-13T10:40:25.925Z,1000.41
2023-01-13T10:41:26.008Z,1000.48
2023-01-13T10:42:25.924Z,1000.34
2023-01-13T10:43:25.919Z,1000.39
2023-01-13T10:44:25.878Z,1000.41
2023-01-13T10:45:25.911Z,1000.34
2023-01-13T10:46:26.085Z,1000.40
2023-01-13T10:47:25.841Z,1000.25
2023-01-13T10:48:25.867Z,1000.43
2023-01-13T10:49:25.832Z,1000.29
2023-01-13T10:50:25.831Z,1000.28
2023-01-13T10:51:25.845Z,1000.26
2023-01-13T10:52:25.904Z,1000.27
2023-01-13T10:53:25.797Z,1000.26
2023-01-13T10:54:25.785Z,1000.30
2023-01-13T10:55:25.773Z,1000.32
2023-01-13T10:56:25.770Z,1000.37
2023-01-13T10:57:25.737Z,1000.31
2023-01-13T10:58:25.750Z,1000.32
2023-01-13T10:59:25.726Z,1000.33
2023-01-13T11:00:25.719Z,1000.28
2023-01-13T11:01:25.950Z,1000.33
2023-01-13T11:02:26.963Z,1000.30
2023-01-13T11:03:25.998Z,1000.37
2023-01-13T11:04:25.714Z,1000.28
2023-01-13T11:05:25.663Z,1000.26
2023-01-13T11:06:25.681Z,1000.28
2023-01-13T11:07:28.223Z,1000.24
2023-01-13T11:08:25.685Z,1000.27
2023-01-13T11:09:25.629Z,1000.34
2023-01-13T11:10:25.614Z,1000.32
2023-01-13T11:11:25.607Z,1000.30
2023-01-13T11:12:25.618Z,1000.35
2023-01-13T11:13:25.592Z,1000.35
2023-01-13T11:14:25.582Z,1000.38
2023-01-13T11:15:25.548Z,1000.36
2023-01-13T11:16:25.654Z,1000.39
2023-01-13T11:17:25.533Z,1000.39
2023-01-13T11:18:25.556Z,1000.41
2023-01-13T11:19:25.527Z,1000.40
2023-01-13T11:20:25.508Z,1000.37
2023-01-13T11:21:25.498Z,1000.38
2023-01-13T11:22:25.485Z,1000.39
2023-01-13T11:23:25.509Z,1000.35
2023-01-13T11:24:25.484Z,1000.37
2023-01-13T11:25:25.459Z,1000.32
2023-01-13T11:26:25.450Z,1000.30
2023-01-13T11:27:25.430Z,1000.32
2023-01-13T11:28:25.465Z,1000.34
2023-01-13T11:29:25.451Z,1000.34
2023-01-13T11:30:25.417Z,1000.39
2023-01-13T11:31:30.324Z,1000.35
2023-01-13T11:32:25.415Z,1000.38
2023-01-13T11:33:25.398Z,1000.38
2023-01-13T11:34:25.371Z,1000.34
2023-01-13T11:35:25.340Z,1000.36
2023-01-13T11:36:25.369Z,1000.37
2023-01-13T11:37:25.345Z,1000.34
2023-01-13T11:38:25.334Z,1000.38
2023-01-13T11:39:25.308Z,1000.35
2023-01-13T11:40:25.295Z,1000.37
2023-01-13T11:41:25.283Z,1000.35
2023-01-13T11:42:25.281Z,1000.32
2023-01-13T11:43:25.286Z,1000.29
2023-01-13T11:44:25.297Z,1000.27
2023-01-13T11:45:25.253Z,1000.33
2023-01-13T11:46:25.284Z,1000.35
2023-01-13T11:47:25.265Z,1000.34
2023-01-13T11:48:25.273Z,1000.32
2023-01-13T11:49:25.252Z,1000.33
2023-01-13T11:50:25.285Z,1000.25
2023-01-13T11:51:25.179Z,1000.29
2023-01-13T11:52:25.169Z,1000.26
2023-01-13T11:53:25.173Z,1000.25
2023-01-13T11:54:25.203Z,1000.29
2023-01-13T11:55:25.140Z,1000.34
2023-01-13T11:56:25.159Z,1000.28
2023-01-13T11:57:25.123Z,1000.30
2023-01-13T11:58:25.139Z,1000.33
2023-01-13T11:59:25.143Z,1000.30
2023-01-13T12:00:25.093Z,1000.32
2023-01-13T12:01:25.155Z,1000.25
2023-01-13T12:02:25.108Z,1000.17
2023-01-13T12:03:25.199Z,1000.30
2023-01-13T12:04:25.116Z,1000.28
2023-01-13T12:05:25.100Z,1000.24
2023-01-13T12:06:25.026Z,1000.33
2023-01-13T12:07:25.068Z,1000.35
2023-01-13T12:08:25.024Z,1000.54
2023-01-13T12:09:25.021Z,1000.34
2023-01-13T12:10:25.017Z,1000.39
2023-01-13T12:11:24.982Z,1000.34
2023-01-13T12:12:24.964Z,1000.36
2023-01-13T12:13:24.986Z,1000.34
2023-01-13T12:14:24.992Z,1000.30
2023-01-13T12:15:24.940Z,1000.33
2023-01-13T12:16:24.968Z,1000.37
2023-01-13T12:17:24.913Z,1000.41
2023-01-13T12:18:24.922Z,1000.52
2023-01-13T12:19:24.893Z,1000.31
2023-01-13T12:20:24.902Z,1000.30
2023-01-13T12:21:24.884Z,1000.35